sensor_id;sensor_type;location;lat;lon;timestamp;pressure;altitude;pressure_sealevel;temperature;humidity
76609;BME280;65928;53.936;27.540;2023-03-23T00:00:58;98726.03;;;11.02;58.85
76609;BME280;65928;53.936;27.540;2023-03-23T00:03:23;98729.75;;;11.29;58.23
76609;BME280;65928;53.936;27.540;2023-03-23T00:05:51;98506.56;;;9.99;58.39
76609;BME280;65928;53.936;27.540;2023-03-23T00:08:18;98458.00;;;9.71;58.36
76609;BME280;65928;53.936;27.540;2023-03-23T00:10:48;98693.88;;;11.09;58.25
76609;BME280;65928;53.936;27.540;2023-03-23T00:13:14;98546.91;;;10.32;58.70
76609;BME280;65928;53.936;27.540;2023-03-23T00:15:44;98699.06;;;11.40;58.32
76609;BME280;65928;53.936;27.540;2023-03-23T00:18:10;98639.47;;;11.05;58.53
76609;BME280;65928;53.936;27.540;2023-03-23T00:20:46;98678.53;;;11.30;58.21
76609;BME280;65928;53.936;27.540;2023-03-23T00:23:18;98411.25;;;9.73;58.58
76609;BME280;65928;53.936;27.540;2023-03-23T00:25:48;98615.75;;;11.04;58.24
76609;BME280;65928;53.936;27.540;2023-03-23T00:28:15;98653.19;;;11.26;57.89
76609;BME280;65928;53.936;27.540;2023-03-23T00:30:41;98674.41;;;11.10;59.16
76609;BME280;65928;53.936;27.540;2023-03-23T00:33:10;98550.59;;;10.29;59.59
76609;BME280;65928;53.936;27.540;2023-03-23T00:35:38;98639.00;;;10.83;59.68
76609;BME280;65928;53.936;27.540;2023-03-23T00:38:05;98694.66;;;11.25;59.23
76609;BME280;65928;53.936;27.540;2023-03-23T00:40:30;98411.13;;;9.45;60.13
76609;BME280;65928;53.936;27.540;2023-03-23T00:42:56;98627.16;;;10.74;59.48
76609;BME280;65928;53.936;27.540;2023-03-23T00:45:22;98610.97;;;10.51;60.23
76609;BME280;65928;53.936;27.540;2023-03-23T00:47:49;98660.00;;;10.86;60.48
76609;BME280;65928;53.936;27.540;2023-03-23T00:50:16;98687.50;;;10.98;60.26
76609;BME280;65928;53.936;27.540;2023-03-23T00:52:42;98409.34;;;9.46;60.13
76609;BME280;65928;53.936;27.540;2023-03-23T00:55:08;98678.63;;;11.28;59.73
76609;BME280;65928;53.936;27.540;2023-03-23T00:57:33;98686.72;;;11.25;60.08
76609;BME280;65928;53.936;27.540;2023-03-23T00:59:58;98683.25;;;11.25;59.92
76609;BME280;65928;53.936;27.540;2023-03-23T01:02:23;98398.63;;;9.18;60.63
76609;BME280;65928;53.936;27.540;2023-03-23T01:04:52;98640.63;;;11.15;59.59
76609;BME280;65928;53.936;27.540;2023-03-23T01:07:20;98393.16;;;9.67;59.31
76609;BME280;65928;53.936;27.540;2023-03-23T01:09:46;98678.25;;;11.34;59.64
76609;BME280;65928;53.936;27.540;2023-03-23T01:12:13;98405.41;;;9.53;59.94
76609;BME280;65928;53.936;27.540;2023-03-23T01:14:40;98422.75;;;9.72;59.46
76609;BME280;65928;53.936;27.540;2023-03-23T01:17:05;98411.44;;;9.70;59.55
76609;BME280;65928;53.936;27.540;2023-03-23T01:19:30;98669.59;;;10.87;61.22
76609;BME280;65928;53.936;27.540;2023-03-23T01:21:56;98535.31;;;10.34;59.97
76609;BME280;65928;53.936;27.540;2023-03-23T01:24:21;98662.75;;;10.99;59.73
76609;BME280;65928;53.936;27.540;2023-03-23T01:26:47;98402.94;;;9.65;60.02
76609;BME280;65928;53.936;27.540;2023-03-23T01:29:12;98433.88;;;9.77;60.18
76609;BME280;65928;53.936;27.540;2023-03-23T01:31:38;98569.13;;;10.43;60.67
76609;BME280;65928;53.936;27.540;2023-03-23T01:34:04;98407.72;;;9.59;60.34
76609;BME280;65928;53.936;27.540;2023-03-23T01:36:30;98656.81;;;10.95;60.83
76609;BME280;65928;53.936;27.540;2023-03-23T01:39:01;98618.22;;;10.77;60.69
76609;BME280;65928;53.936;27.540;2023-03-23T01:41:29;98380.91;;;9.51;60.17
76609;BME280;65928;53.936;27.540;2023-03-23T01:46:31;98378.50;;;9.32;60.64
76609;BME280;65928;53.936;27.540;2023-03-23T01:49:11;98652.72;;;10.90;60.92
76609;BME280;65928;53.936;27.540;2023-03-23T01:51:45;98376.19;;;9.42;60.22
76609;BME280;65928;53.936;27.540;2023-03-23T01:54:14;98607.13;;;10.86;60.26
76609;BME280;65928;53.936;27.540;2023-03-23T01:57:04;98652.13;;;11.14;60.42
76609;BME280;65928;53.936;27.540;2023-03-23T01:59:31;98385.44;;;9.49;60.13
76609;BME280;65928;53.936;27.540;2023-03-23T02:01:58;98659.56;;;10.78;61.13
76609;BME280;65928;53.936;27.540;2023-03-23T02:04:27;98639.72;;;11.01;60.54
76609;BME280;65928;53.936;27.540;2023-03-23T02:06:54;98599.41;;;10.67;60.54
76609;BME280;65928;53.936;27.540;2023-03-23T02:09:22;98441.00;;;9.91;60.70
76609;BME280;65928;53.936;27.540;2023-03-23T02:11:48;98627.28;;;11.03;60.19
76609;BME280;65928;53.936;27.540;2023-03-23T02:14:15;98472.75;;;10.05;60.77
76609;BME280;65928;53.936;27.540;2023-03-23T02:30:10;98380.31;;;9.61;60.31
76609;BME280;65928;53.936;27.540;2023-03-23T02:35:22;98570.94;;;10.72;60.93
76609;BME280;65928;53.936;27.540;2023-03-23T02:37:52;98636.00;;;11.33;60.65
76609;BME280;65928;53.936;27.540;2023-03-23T02:40:29;98370.97;;;9.85;60.62
76609;BME280;65928;53.936;27.540;2023-03-23T02:42:57;98420.03;;;10.19;60.27
76609;BME280;65928;53.936;27.540;2023-03-23T02:45:27;98636.41;;;11.41;60.92
76609;BME280;65928;53.936;27.540;2023-03-23T02:47:54;98646.72;;;11.45;60.70
76609;BME280;65928;53.936;27.540;2023-03-23T02:50:23;98349.41;;;9.79;60.51
76609;BME280;65928;53.936;27.540;2023-03-23T02:52:52;98367.88;;;9.93;60.32
76609;BME280;65928;53.936;27.540;2023-03-23T02:55:19;98429.78;;;10.33;60.30
76609;BME280;65928;53.936;27.540;2023-03-23T02:57:48;98412.88;;;10.21;60.45
76609;BME280;65928;53.936;27.540;2023-03-23T03:00:16;98430.81;;;10.30;60.37
76609;BME280;65928;53.936;27.540;2023-03-23T03:02:46;98373.44;;;9.88;60.74
76609;BME280;65928;53.936;27.540;2023-03-23T03:05:36;98629.59;;;11.51;60.73
76609;BME280;65928;53.936;27.540;2023-03-23T03:08:22;98625.34;;;11.48;60.82
76609;BME280;65928;53.936;27.540;2023-03-23T03:11:03;98618.97;;;11.09;61.74
76609;BME280;65928;53.936;27.540;2023-03-23T03:13:46;98630.34;;;11.25;61.91
76609;BME280;65928;53.936;27.540;2023-03-23T03:16:19;98624.22;;;11.38;61.11
76609;BME280;65928;53.936;27.540;2023-03-23T03:19:06;98620.91;;;11.35;61.39
76609;BME280;65928;53.936;27.540;2023-03-23T03:21:37;98588.09;;;11.23;61.19
76609;BME280;65928;53.936;27.540;2023-03-23T03:24:05;98331.91;;;9.62;61.26
76609;BME280;65928;53.936;27.540;2023-03-23T03:26:37;98390.81;;;9.92;61.61
76609;BME280;65928;53.936;27.540;2023-03-23T03:29:05;98320.72;;;9.43;61.48
76609;BME280;65928;53.936;27.540;2023-03-23T03:31:35;98371.63;;;9.75;61.60
76609;BME280;65928;53.936;27.540;2023-03-23T03:34:00;98564.50;;;10.62;63.02
76609;BME280;65928;53.936;27.540;2023-03-23T03:36:33;98644.00;;;11.03;62.64
76609;BME280;65928;53.936;27.540;2023-03-23T03:39:07;98573.44;;;10.90;62.36
76609;BME280;65928;53.936;27.540;2023-03-23T03:41:34;98389.06;;;9.62;62.44
76609;BME280;65928;53.936;27.540;2023-03-23T03:44:01;98339.84;;;9.47;62.00
76609;BME280;65928;53.936;27.540;2023-03-23T03:46:26;98629.66;;;11.07;62.68
76609;BME280;65928;53.936;27.540;2023-03-23T03:48:55;98531.91;;;10.62;62.48
76609;BME280;65928;53.936;27.540;2023-03-23T03:51:21;98599.88;;;10.90;62.83
76609;BME280;65928;53.936;27.540;2023-03-23T03:53:47;98549.41;;;10.64;62.86
76609;BME280;65928;53.936;27.540;2023-03-23T03:56:12;98593.03;;;10.56;63.84
76609;BME280;65928;53.936;27.540;2023-03-23T03:58:39;98540.66;;;10.48;63.20
76609;BME280;65928;53.936;27.540;2023-03-23T04:01:04;98565.19;;;10.80;62.84
76609;BME280;65928;53.936;27.540;2023-03-23T04:03:29;98577.16;;;10.71;62.47
76609;BME280;65928;53.936;27.540;2023-03-23T04:05:55;98306.63;;;9.29;62.38
76609;BME280;65928;53.936;27.540;2023-03-23T04:08:22;98303.94;;;9.15;63.05
76609;BME280;65928;53.936;27.540;2023-03-23T04:10:48;98552.53;;;10.41;63.75
76609;BME280;65928;53.936;27.540;2023-03-23T04:13:13;98430.03;;;10.14;62.62
76609;BME280;65928;53.936;27.540;2023-03-23T04:15:38;98356.19;;;9.38;63.25
76609;BME280;65928;53.936;27.540;2023-03-23T04:18:04;98570.47;;;10.80;63.03
76609;BME280;65928;53.936;27.540;2023-03-23T04:20:30;98523.09;;;10.47;62.74
76609;BME280;65928;53.936;27.540;2023-03-23T04:22:56;98572.13;;;10.67;63.73
76609;BME280;65928;53.936;27.540;2023-03-23T04:25:21;98537.31;;;10.60;62.86
76609;BME280;65928;53.936;27.540;2023-03-23T04:27:51;98282.97;;;8.82;63.35
76609;BME280;65928;53.936;27.540;2023-03-23T04:30:21;98307.00;;;8.91;63.47
76609;BME280;65928;53.936;27.540;2023-03-23T04:32:48;98305.28;;;8.90;63.86
76609;BME280;65928;53.936;27.540;2023-03-23T04:35:17;98301.97;;;9.02;63.13
76609;BME280;65928;53.936;27.540;2023-03-23T04:37:42;98352.78;;;9.36;63.21
76609;BME280;65928;53.936;27.540;2023-03-23T04:40:09;98570.94;;;10.72;62.91
76609;BME280;65928;53.936;27.540;2023-03-23T04:42:39;98565.50;;;11.04;62.12
76609;BME280;65928;53.936;27.540;2023-03-23T04:45:06;98540.00;;;10.89;62.04
76609;BME280;65928;53.936;27.540;2023-03-23T04:47:34;98348.28;;;9.83;61.93
76609;BME280;65928;53.936;27.540;2023-03-23T04:50:10;98356.28;;;9.66;62.19
76609;BME280;65928;53.936;27.540;2023-03-23T04:52:37;98379.75;;;9.86;62.36
76609;BME280;65928;53.936;27.540;2023-03-23T04:55:08;98582.44;;;11.01;63.02
76609;BME280;65928;53.936;27.540;2023-03-23T04:57:34;98527.53;;;10.47;62.82
76609;BME280;65928;53.936;27.540;2023-03-23T05:00:02;98581.97;;;10.79;62.39
76609;BME280;65928;53.936;27.540;2023-03-23T05:02:35;98290.13;;;9.25;63.12
76609;BME280;65928;53.936;27.540;2023-03-23T05:05:01;98582.81;;;11.09;62.32
76609;BME280;65928;53.936;27.540;2023-03-23T05:07:26;98457.28;;;10.58;61.90
76609;BME280;65928;53.936;27.540;2023-03-23T05:09:52;98582.16;;;11.20;61.92
76609;BME280;65928;53.936;27.540;2023-03-23T05:12:17;98595.84;;;11.12;61.72
76609;BME280;65928;53.936;27.540;2023-03-23T05:14:43;98514.31;;;10.91;61.54
76609;BME280;65928;53.936;27.540;2023-03-23T05:17:08;98305.00;;;9.85;61.09
76609;BME280;65928;53.936;27.540;2023-03-23T05:19:34;98586.22;;;11.25;61.49
76609;BME280;65928;53.936;27.540;2023-03-23T05:22:00;98554.47;;;11.25;61.43
76609;BME280;65928;53.936;27.540;2023-03-23T05:24:32;98426.72;;;10.82;60.82
76609;BME280;65928;53.936;27.540;2023-03-23T05:27:00;98372.44;;;10.35;61.08
76609;BME280;65928;53.936;27.540;2023-03-23T05:29:27;98373.06;;;10.10;61.60
76609;BME280;65928;53.936;27.540;2023-03-23T05:31:55;98494.38;;;10.71;62.10
76609;BME280;65928;53.936;27.540;2023-03-23T05:34:21;98556.09;;;11.56;60.60
76609;BME280;65928;53.936;27.540;2023-03-23T05:36:46;98554.00;;;11.47;61.09
76609;BME280;65928;53.936;27.540;2023-03-23T05:39:12;98562.88;;;11.18;62.02
76609;BME280;65928;53.936;27.540;2023-03-23T05:41:38;98555.72;;;11.20;61.47
76609;BME280;65928;53.936;27.540;2023-03-23T05:44:04;98351.22;;;10.36;60.67
76609;BME280;65928;53.936;27.540;2023-03-23T05:46:30;98284.66;;;9.87;60.76
76609;BME280;65928;53.936;27.540;2023-03-23T05:48:55;98307.00;;;10.26;60.05
76609;BME280;65928;53.936;27.540;2023-03-23T05:51:20;98559.97;;;11.64;60.03
76609;BME280;65928;53.936;27.540;2023-03-23T05:53:46;98530.03;;;11.22;60.38
76609;BME280;65928;53.936;27.540;2023-03-23T05:56:12;98356.13;;;10.56;59.74
76609;BME280;65928;53.936;27.540;2023-03-23T05:58:38;98311.16;;;10.30;59.51
76609;BME280;65928;53.936;27.540;2023-03-23T06:01:07;98420.09;;;10.61;60.27
76609;BME280;65928;53.936;27.540;2023-03-23T06:03:32;98302.75;;;10.23;60.12
76609;BME280;65928;53.936;27.540;2023-03-23T06:06:00;98530.59;;;11.83;59.24
76609;BME280;65928;53.936;27.540;2023-03-23T06:08:25;98337.44;;;10.59;58.83
76609;BME280;65928;53.936;27.540;2023-03-23T06:10:51;98349.13;;;10.55;59.25
76609;BME280;65928;53.936;27.540;2023-03-23T06:13:16;98309.94;;;10.06;59.62
76609;BME280;65928;53.936;27.540;2023-03-23T06:15:41;98553.34;;;11.86;59.19
76609;BME280;65928;53.936;27.540;2023-03-23T06:18:07;98569.84;;;12.03;58.82
76609;BME280;65928;53.936;27.540;2023-03-23T06:20:32;98354.69;;;10.79;58.55
76609;BME280;65928;53.936;27.540;2023-03-23T06:22:58;98568.50;;;11.69;60.11
76609;BME280;65928;53.936;27.540;2023-03-23T06:25:24;98554.75;;;11.91;59.54
76609;BME280;65928;53.936;27.540;2023-03-23T06:27:49;98301.13;;;10.35;59.04
76609;BME280;65928;53.936;27.540;2023-03-23T06:30:17;98524.56;;;11.94;59.08
76609;BME280;65928;53.936;27.540;2023-03-23T06:32:43;98575.59;;;11.83;59.63
76609;BME280;65928;53.936;27.540;2023-03-23T06:35:11;98287.28;;;10.31;59.05
76609;BME280;65928;53.936;27.540;2023-03-23T06:37:37;98518.50;;;11.09;60.29
76609;BME280;65928;53.936;27.540;2023-03-23T06:40:03;98315.47;;;10.45;59.69
76609;BME280;65928;53.936;27.540;2023-03-23T06:42:32;98564.88;;;11.99;59.37
76609;BME280;65928;53.936;27.540;2023-03-23T06:44:58;98568.16;;;12.02;59.51
76609;BME280;65928;53.936;27.540;2023-03-23T06:47:26;98602.53;;;12.16;59.55
76609;BME280;65928;53.936;27.540;2023-03-23T06:49:51;98513.00;;;12.09;59.01
76609;BME280;65928;53.936;27.540;2023-03-23T06:52:17;98553.47;;;12.11;59.66
76609;BME280;65928;53.936;27.540;2023-03-23T06:54:42;98569.47;;;12.09;59.50
76609;BME280;65928;53.936;27.540;2023-03-23T06:57:08;98298.34;;;10.78;59.16
76609;BME280;65928;53.936;27.540;2023-03-23T06:59:33;98540.22;;;12.11;59.51
76609;BME280;65928;53.936;27.540;2023-03-23T07:01:59;98302.13;;;10.74;59.26
76609;BME280;65928;53.936;27.540;2023-03-23T07:04:24;98400.91;;;11.28;59.39
76609;BME280;65928;53.936;27.540;2023-03-23T07:06:50;98259.91;;;10.60;59.50
76609;BME280;65928;53.936;27.540;2023-03-23T07:09:15;98407.47;;;11.49;59.49
76609;BME280;65928;53.936;27.540;2023-03-23T07:11:41;98299.69;;;10.71;60.18
76609;BME280;65928;53.936;27.540;2023-03-23T07:14:07;98566.19;;;11.92;60.88
76609;BME280;65928;53.936;27.540;2023-03-23T07:16:32;98519.25;;;12.08;60.15
76609;BME280;65928;53.936;27.540;2023-03-23T07:18:58;98545.22;;;12.42;59.61
76609;BME280;65928;53.936;27.540;2023-03-23T07:21:24;98563.44;;;12.73;58.58
76609;BME280;65928;53.936;27.540;2023-03-23T07:23:49;98516.53;;;12.48;58.65
76609;BME280;65928;53.936;27.540;2023-03-23T07:26:15;98514.16;;;12.71;58.40
76609;BME280;65928;53.936;27.540;2023-03-23T07:28:40;98317.28;;;11.66;58.06
76609;BME280;65928;53.936;27.540;2023-03-23T07:31:06;98515.41;;;12.78;57.80
76609;BME280;65928;53.936;27.540;2023-03-23T07:33:33;98537.94;;;13.47;56.74
76609;BME280;65928;53.936;27.540;2023-03-23T07:35:59;98444.06;;;13.12;56.41
76609;BME280;65928;53.936;27.540;2023-03-23T07:38:26;98500.44;;;13.65;56.10
76609;BME280;65928;53.936;27.540;2023-03-23T07:40:52;98436.13;;;13.48;56.10
76609;BME280;65928;53.936;27.540;2023-03-23T07:43:18;98241.84;;;11.99;56.75
76609;BME280;65928;53.936;27.540;2023-03-23T07:45:44;98255.44;;;12.55;55.32
76609;BME280;65928;53.936;27.540;2023-03-23T07:48:10;98238.66;;;12.68;54.95
76609;BME280;65928;53.936;27.540;2023-03-23T07:50:35;98297.94;;;13.03;55.01
76609;BME280;65928;53.936;27.540;2023-03-23T07:53:02;98491.41;;;13.67;55.73
76609;BME280;65928;53.936;27.540;2023-03-23T07:55:27;98244.19;;;12.65;55.11
76609;BME280;65928;53.936;27.540;2023-03-23T07:57:54;98292.41;;;12.70;55.19
76609;BME280;65928;53.936;27.540;2023-03-23T08:00:21;98220.34;;;13.24;53.83
76609;BME280;65928;53.936;27.540;2023-03-23T08:02:51;98464.75;;;14.74;53.46
76609;BME280;65928;53.936;27.540;2023-03-23T08:05:16;98462.47;;;14.35;54.06
76609;BME280;65928;53.936;27.540;2023-03-23T08:07:43;98471.63;;;14.18;53.94
76609;BME280;65928;53.936;27.540;2023-03-23T08:10:11;98472.16;;;14.00;54.48
76609;BME280;65928;53.936;27.540;2023-03-23T08:12:40;98469.78;;;13.84;55.44
76609;BME280;65928;53.936;27.540;2023-03-23T08:15:07;98479.06;;;13.79;54.62
76609;BME280;65928;53.936;27.540;2023-03-23T08:17:34;98465.44;;;13.47;55.51
76609;BME280;65928;53.936;27.540;2023-03-23T08:20:00;98499.06;;;14.19;54.09
76609;BME280;65928;53.936;27.540;2023-03-23T08:22:26;98432.19;;;13.78;54.28
76609;BME280;65928;53.936;27.540;2023-03-23T08:24:54;98452.91;;;13.85;55.04
76609;BME280;65928;53.936;27.540;2023-03-23T08:27:20;98470.91;;;14.40;53.38
76609;BME280;65928;53.936;27.540;2023-03-23T08:29:46;98458.31;;;14.55;53.38
76609;BME280;65928;53.936;27.540;2023-03-23T08:32:12;98466.31;;;14.77;52.43
76609;BME280;65928;53.936;27.540;2023-03-23T08:34:37;98457.38;;;14.78;52.69
76609;BME280;65928;53.936;27.540;2023-03-23T08:37:04;98500.75;;;14.67;53.04
76609;BME280;65928;53.936;27.540;2023-03-23T08:39:30;98261.75;;;13.73;52.12
76609;BME280;65928;53.936;27.540;2023-03-23T08:41:56;98259.91;;;13.97;51.82
76609;BME280;65928;53.936;27.540;2023-03-23T08:44:21;98408.13;;;14.15;53.18
76609;BME280;65928;53.936;27.540;2023-03-23T08:46:46;98204.88;;;13.18;52.77
76609;BME280;65928;53.936;27.540;2023-03-23T08:49:12;98251.69;;;13.54;52.78
76609;BME280;65928;53.936;27.540;2023-03-23T08:51:37;98237.63;;;12.94;53.81
76609;BME280;65928;53.936;27.540;2023-03-23T08:54:03;98441.31;;;14.79;52.88
76609;BME280;65928;53.936;27.540;2023-03-23T08:56:28;98204.94;;;13.75;51.27
76609;BME280;65928;53.936;27.540;2023-03-23T08:58:53;98415.69;;;14.78;51.77
76609;BME280;65928;53.936;27.540;2023-03-23T09:01:19;98449.06;;;14.93;52.11
76609;BME280;65928;53.936;27.540;2023-03-23T09:03:45;98222.41;;;13.67;52.23
76609;BME280;65928;53.936;27.540;2023-03-23T09:06:11;98336.13;;;14.64;51.28
76609;BME280;65928;53.936;27.540;2023-03-23T09:08:38;98415.56;;;14.80;51.97
76609;BME280;65928;53.936;27.540;2023-03-23T09:11:06;98446.38;;;14.71;52.65
76609;BME280;65928;53.936;27.540;2023-03-23T09:13:33;98198.81;;;13.51;52.85
76609;BME280;65928;53.936;27.540;2023-03-23T09:15:58;98465.31;;;15.68;51.30
76609;BME280;65928;53.936;27.540;2023-03-23T09:18:24;98206.31;;;14.25;50.66
76609;BME280;65928;53.936;27.540;2023-03-23T09:20:51;98401.88;;;15.40;50.52
76609;BME280;65928;53.936;27.540;2023-03-23T09:23:16;98449.66;;;15.74;51.07
76609;BME280;65928;53.936;27.540;2023-03-23T09:25:42;98440.94;;;16.26;49.44
76609;BME280;65928;53.936;27.540;2023-03-23T09:28:08;98204.16;;;14.41;50.21
76609;BME280;65928;53.936;27.540;2023-03-23T09:30:35;98450.44;;;16.08;50.19
76609;BME280;65928;53.936;27.540;2023-03-23T09:33:03;98461.94;;;16.08;50.97
76609;BME280;65928;53.936;27.540;2023-03-23T09:35:29;98198.81;;;13.97;50.59
76609;BME280;65928;53.936;27.540;2023-03-23T09:37:56;98366.44;;;15.50;50.90
76609;BME280;65928;53.936;27.540;2023-03-23T09:40:55;98251.03;;;15.29;49.39
76609;BME280;65928;53.936;27.540;2023-03-23T09:43:41;98442.75;;;16.26;49.73
76609;BME280;65928;53.936;27.540;2023-03-23T09:51:22;98403.97;;;16.53;48.04
76609;BME280;65928;53.936;27.540;2023-03-23T09:53:55;98197.72;;;14.66;49.30
76609;BME280;65928;53.936;27.540;2023-03-23T09:56:23;98369.69;;;16.17;48.88
76609;BME280;65928;53.936;27.540;2023-03-23T10:01:25;98358.22;;;16.78;48.09
76609;BME280;65928;53.936;27.540;2023-03-23T10:03:58;98256.56;;;16.31;47.56
76609;BME280;65928;53.936;27.540;2023-03-23T10:06:26;98167.16;;;15.35;48.62
76609;BME280;65928;53.936;27.540;2023-03-23T10:08:54;98376.75;;;17.20;47.30
76609;BME280;65928;53.936;27.540;2023-03-23T10:11:43;98161.63;;;15.88;47.20
76609;BME280;65928;53.936;27.540;2023-03-23T10:14:18;98385.84;;;17.38;48.07
76609;BME280;65928;53.936;27.540;2023-03-23T10:20:14;98377.22;;;17.64;46.34
76609;BME280;65928;53.936;27.540;2023-03-23T10:22:52;98283.66;;;16.56;47.45
76609;BME280;65928;53.936;27.540;2023-03-23T10:25:26;98361.56;;;17.11;47.87
76609;BME280;65928;53.936;27.540;2023-03-23T10:28:06;98384.94;;;17.28;47.34
76609;BME280;65928;53.936;27.540;2023-03-23T10:30:42;98376.28;;;18.04;45.93
76609;BME280;65928;53.936;27.540;2023-03-23T10:33:20;98385.00;;;17.96;46.22
76609;BME280;65928;53.936;27.540;2023-03-23T10:36:01;98364.16;;;17.80;45.96
76609;BME280;65928;53.936;27.540;2023-03-23T10:38:41;98364.84;;;17.73;45.75
76609;BME280;65928;53.936;27.540;2023-03-23T10:41:17;98357.25;;;18.54;44.70
76609;BME280;65928;53.936;27.540;2023-03-23T10:43:44;98355.88;;;18.03;45.44
76609;BME280;65928;53.936;27.540;2023-03-23T10:46:28;98147.44;;;16.88;45.19
76609;BME280;65928;53.936;27.540;2023-03-23T10:48:58;98345.56;;;18.36;44.69
76609;BME280;65928;53.936;27.540;2023-03-23T10:51:31;98326.44;;;18.31;44.47
76609;BME280;65928;53.936;27.540;2023-03-23T10:54:00;98118.94;;;17.08;44.40
76609;BME280;65928;53.936;27.540;2023-03-23T10:56:36;98274.25;;;17.51;45.10
76609;BME280;65928;53.936;27.540;2023-03-23T10:59:19;98080.81;;;16.67;44.84
76609;BME280;65928;53.936;27.540;2023-03-23T11:01:47;98327.84;;;18.26;44.71
76609;BME280;65928;53.936;27.540;2023-03-23T11:04:15;98138.84;;;17.42;44.48
76609;BME280;65928;53.936;27.540;2023-03-23T11:06:46;98125.38;;;17.53;44.04
76609;BME280;65928;53.936;27.540;2023-03-23T11:09:18;98321.91;;;18.97;44.10
76609;BME280;65928;53.936;27.540;2023-03-23T11:11:54;98120.78;;;17.82;43.42
76609;BME280;65928;53.936;27.540;2023-03-23T11:14:33;98328.13;;;18.98;43.54
76609;BME280;65928;53.936;27.540;2023-03-23T11:17:02;98307.56;;;18.33;44.61
76609;BME280;65928;53.936;27.540;2023-03-23T11:19:30;98284.34;;;18.33;44.47
76609;BME280;65928;53.936;27.540;2023-03-23T11:24:32;98297.75;;;18.05;45.88
76609;BME280;65928;53.936;27.540;2023-03-23T11:26:59;98068.88;;;16.71;45.85
76609;BME280;65928;53.936;27.540;2023-03-23T11:29:26;98065.41;;;16.99;45.29
76609;BME280;65928;53.936;27.540;2023-03-23T11:32:03;98070.16;;;17.06;44.73
76609;BME280;65928;53.936;27.540;2023-03-23T11:34:35;98085.38;;;17.70;44.74
76609;BME280;65928;53.936;27.540;2023-03-23T11:37:03;98090.28;;;17.84;43.72
76609;BME280;65928;53.936;27.540;2023-03-23T11:39:33;98266.50;;;19.25;43.86
76609;BME280;65928;53.936;27.540;2023-03-23T11:42:01;98274.28;;;19.45;43.10
76609;BME280;65928;53.936;27.540;2023-03-23T11:44:41;98037.38;;;18.15;42.31
76609;BME280;65928;53.936;27.540;2023-03-23T11:47:36;98270.16;;;19.51;42.34
76609;BME280;65928;53.936;27.540;2023-03-23T11:50:17;98084.34;;;18.54;42.76
76609;BME280;65928;53.936;27.540;2023-03-23T11:57:43;98013.38;;;18.68;41.74
76609;BME280;65928;53.936;27.540;2023-03-23T12:00:17;98253.34;;;20.02;41.51
76609;BME280;65928;53.936;27.540;2023-03-23T12:03:04;98248.91;;;20.10;40.86
76609;BME280;65928;53.936;27.540;2023-03-23T12:16:45;98249.59;;;20.30;41.51
76609;BME280;65928;53.936;27.540;2023-03-23T12:19:30;98225.44;;;20.30;41.60
76609;BME280;65928;53.936;27.540;2023-03-23T12:30:54;98217.09;;;19.72;42.49
76609;BME280;65928;53.936;27.540;2023-03-23T12:38:44;98209.28;;;18.99;43.96
76609;BME280;65928;53.936;27.540;2023-03-23T12:44:56;98040.50;;;18.38;42.17
76609;BME280;65928;53.936;27.540;2023-03-23T12:50:03;98200.97;;;19.02;43.23
76609;BME280;65928;53.936;27.540;2023-03-23T12:52:44;98188.44;;;19.73;42.05
76609;BME280;65928;53.936;27.540;2023-03-23T12:55:36;98195.97;;;18.89;43.36
76609;BME280;65928;53.936;27.540;2023-03-23T12:58:16;98146.44;;;18.75;42.92
76609;BME280;65928;53.936;27.540;2023-03-23T13:01:12;98192.75;;;19.65;42.02
76609;BME280;65928;53.936;27.540;2023-03-23T13:03:48;98166.22;;;19.37;42.42
76609;BME280;65928;53.936;27.540;2023-03-23T13:06:33;98155.66;;;19.61;42.30
76609;BME280;65928;53.936;27.540;2023-03-23T13:09:20;98170.88;;;19.52;42.71
76609;BME280;65928;53.936;27.540;2023-03-23T13:11:50;98132.56;;;19.07;43.06
76609;BME280;65928;53.936;27.540;2023-03-23T13:14:35;98163.19;;;20.01;41.57
76609;BME280;65928;53.936;27.540;2023-03-23T13:22:35;97939.53;;;19.01;41.44
76609;BME280;65928;53.936;27.540;2023-03-23T13:25:08;98135.34;;;20.02;41.53
76609;BME280;65928;53.936;27.540;2023-03-23T13:27:37;97944.47;;;18.88;41.65
76609;BME280;65928;53.936;27.540;2023-03-23T13:30:02;97939.44;;;19.10;41.21
76609;BME280;65928;53.936;27.540;2023-03-23T13:32:47;97929.31;;;17.90;42.50
76609;BME280;65928;53.936;27.540;2023-03-23T13:35:13;98055.44;;;19.11;41.81
76609;BME280;65928;53.936;27.540;2023-03-23T13:37:46;98140.47;;;19.87;41.18
76609;BME280;65928;53.936;27.540;2023-03-23T13:42:53;98118.34;;;19.85;40.87
76609;BME280;65928;53.936;27.540;2023-03-23T13:45:21;98109.91;;;19.80;41.53
76609;BME280;65928;53.936;27.540;2023-03-23T13:47:48;98059.56;;;19.66;40.98
76609;BME280;65928;53.936;27.540;2023-03-23T13:50:26;97874.16;;;18.60;40.38
76609;BME280;65928;53.936;27.540;2023-03-23T13:53:01;97912.97;;;18.11;42.00
76609;BME280;65928;53.936;27.540;2023-03-23T13:55:42;98036.44;;;19.22;41.35
76609;BME280;65928;53.936;27.540;2023-03-23T13:58:22;98109.03;;;19.97;40.81
76609;BME280;65928;53.936;27.540;2023-03-23T14:00:50;97878.22;;;18.29;41.72
76609;BME280;65928;53.936;27.540;2023-03-23T14:03:36;98108.31;;;20.21;40.53
76609;BME280;65928;53.936;27.540;2023-03-23T14:06:08;97849.56;;;18.39;39.82
76609;BME280;65928;53.936;27.540;2023-03-23T14:08:39;98052.44;;;19.57;40.50
76609;BME280;65928;53.936;27.540;2023-03-23T14:11:18;98066.25;;;20.21;39.57
76609;BME280;65928;53.936;27.540;2023-03-23T14:16:28;98079.78;;;20.62;39.34
76609;BME280;65928;53.936;27.540;2023-03-23T14:18:59;98075.75;;;20.16;39.77
76609;BME280;65928;53.936;27.540;2023-03-23T14:21:37;97849.06;;;19.12;39.58